createdAt,value
2022-10-24T00:03:32.274Z,8.89
2022-10-24T00:08:34.867Z,8.89
2022-10-24T00:13:37.166Z,8.86
2022-10-24T00:18:39.113Z,8.82
2022-10-24T00:23:41.017Z,8.80
2022-10-24T00:28:43.007Z,8.83
2022-10-24T00:33:45.596Z,8.82
2022-10-24T00:38:47.761Z,8.79
2022-10-24T00:43:49.863Z,8.76
2022-10-24T00:48:53.934Z,8.77
2022-10-24T00:59:07.375Z,8.61
2022-10-24T01:04:12.262Z,8.54
2022-10-24T01:09:14.136Z,8.52
2022-10-24T01:14:39.300Z,8.47
2022-10-24T01:19:50.410Z,8.47
2022-10-24T01:25:15.843Z,8.41
2022-10-24T01:30:18.486Z,8.41
2022-10-24T01:35:40.479Z,8.45
2022-10-24T01:40:42.393Z,8.51
2022-10-24T01:45:46.098Z,8.49
2022-10-24T01:50:49.639Z,8.43
2022-10-24T01:55:52.004Z,8.42
2022-10-24T02:00:58.899Z,8.43
2022-10-24T02:06:08.182Z,8.44
2022-10-24T02:11:10.593Z,8.43
2022-10-24T02:16:14.720Z,8.41
2022-10-24T02:21:28.705Z,8.42
2022-10-24T02:26:46.300Z,8.43
2022-10-24T02:31:54.505Z,8.42
2022-10-24T02:36:57.247Z,8.47
2022-10-24T02:41:59.525Z,8.51
2022-10-24T02:47:03.853Z,8.52
2022-10-24T02:52:06.685Z,8.49
2022-10-24T02:57:08.946Z,8.43
2022-10-24T03:02:10.935Z,8.36
2022-10-24T03:07:12.846Z,8.29
2022-10-24T03:12:16.126Z,8.22
2022-10-24T03:17:18.077Z,8.22
2022-10-24T03:22:20.058Z,8.14
2022-10-24T03:27:22.040Z,8.14
2022-10-24T03:32:24.123Z,8.11
2022-10-24T03:37:26.195Z,8.05
2022-10-24T03:42:28.142Z,8.05
2022-10-24T03:47:30.154Z,8.10
2022-10-24T03:52:32.979Z,8.12
2022-10-24T03:57:35.001Z,8.11
2022-10-24T04:02:39.037Z,8.09
2022-10-24T04:07:43.759Z,8.10
2022-10-24T04:12:45.988Z,8.07
2022-10-24T04:17:48.065Z,8.07
2022-10-24T04:22:50.129Z,8.05
2022-10-24T04:27:52.162Z,8.06
2022-10-24T04:32:54.182Z,8.09
2022-10-24T04:37:56.164Z,8.11
2022-10-24T04:42:58.162Z,8.16
2022-10-24T04:48:00.141Z,8.18
2022-10-24T04:53:02.423Z,8.14
2022-10-24T04:58:04.772Z,8.18
2022-10-24T05:03:06.734Z,8.24
2022-10-24T05:08:08.751Z,8.31
2022-10-24T05:13:10.647Z,8.35
2022-10-24T05:18:12.747Z,8.37
2022-10-24T05:23:14.714Z,8.40
2022-10-24T05:28:16.875Z,8.42
2022-10-24T05:33:18.809Z,8.43
2022-10-24T05:38:21.177Z,8.49
2022-10-24T05:43:23.182Z,8.51
2022-10-24T05:48:25.196Z,8.51
2022-10-24T05:53:27.400Z,8.51
2022-10-24T05:58:29.441Z,8.50
2022-10-24T06:03:31.482Z,8.50
2022-10-24T06:08:34.299Z,8.58
2022-10-24T06:13:36.525Z,8.73
2022-10-24T06:18:39.444Z,8.96
2022-10-24T06:23:41.379Z,9.33
2022-10-24T06:28:43.340Z,9.91
2022-10-24T06:33:45.333Z,10.98
2022-10-24T06:38:47.437Z,11.59
2022-10-24T06:43:49.810Z,11.31
2022-10-24T06:48:55.378Z,10.77
2022-10-24T06:53:59.168Z,10.43
2022-10-24T06:59:01.071Z,10.27
2022-10-24T07:04:02.964Z,10.19
2022-10-24T07:09:05.769Z,10.09
2022-10-24T07:14:09.404Z,10.21
2022-10-24T07:19:11.502Z,10.55
2022-10-24T07:24:13.547Z,11.16
2022-10-24T07:29:15.733Z,12.29
2022-10-24T07:34:17.736Z,12.91
2022-10-24T07:39:19.623Z,12.89
2022-10-24T07:44:21.587Z,12.57
2022-10-24T07:49:23.872Z,12.10
2022-10-24T07:54:26.894Z,11.87
2022-10-24T07:59:41.315Z,12.03
2022-10-24T08:04:44.045Z,11.91
2022-10-24T08:09:47.059Z,11.44
2022-10-24T08:14:49.095Z,10.93
2022-10-24T08:19:51.017Z,10.45
2022-10-24T08:24:52.903Z,10.02
2022-10-24T08:29:54.777Z,9.76
2022-10-24T08:34:57.692Z,9.70
2022-10-24T08:39:59.626Z,9.76
2022-10-24T08:45:01.762Z,9.87
2022-10-24T08:50:04.998Z,10.07
2022-10-24T09:00:39.291Z,10.47
2022-10-24T09:05:43.530Z,10.43
2022-10-24T09:10:57.233Z,10.49
2022-10-24T09:15:59.298Z,10.68
2022-10-24T09:21:02.068Z,10.87
2022-10-24T09:26:07.157Z,12.45
2022-10-24T09:31:18.358Z,13.84
2022-10-24T09:36:24.943Z,13.92
2022-10-24T09:41:28.867Z,13.74
2022-10-24T09:46:45.271Z,15.14
2022-10-24T09:51:49.428Z,18.68
2022-10-24T09:56:57.288Z,21.20
2022-10-24T10:02:25.327Z,22.00
2022-10-24T10:07:28.198Z,21.18
2022-10-24T10:12:35.036Z,21.66
2022-10-24T10:17:49.258Z,24.00
2022-10-24T10:22:51.190Z,25.76
2022-10-24T10:27:53.064Z,25.33
2022-10-24T10:32:55.024Z,24.13
2022-10-24T10:38:15.466Z,21.95
2022-10-24T10:43:24.346Z,20.29
2022-10-24T10:48:44.694Z,18.66
2022-10-24T10:53:52.667Z,17.86
2022-10-24T10:59:00.777Z,20.54
2022-10-24T11:04:17.980Z,21.98
2022-10-24T11:09:46.224Z,22.76
2022-10-24T11:15:06.737Z,23.82
2022-10-24T11:20:14.894Z,25.02
2022-10-24T11:25:20.791Z,25.54
2022-10-24T11:30:30.982Z,25.86
2022-10-24T11:35:34.041Z,25.80
2022-10-24T11:40:36.816Z,25.58
2022-10-24T11:45:48.538Z,25.39
2022-10-24T11:50:54.230Z,25.69
2022-10-24T11:56:17.999Z,26.03
2022-10-24T12:01:39.342Z,26.11
2022-10-24T12:06:44.291Z,25.16
2022-10-24T12:11:53.136Z,24.82
2022-10-24T12:16:58.072Z,24.56
2022-10-24T12:22:02.733Z,24.76
2022-10-24T12:27:06.981Z,24.99
2022-10-24T12:32:27.712Z,24.36
2022-10-24T12:37:29.647Z,23.20
2022-10-24T12:42:31.559Z,22.59
2022-10-24T12:47:33.510Z,21.92
2022-10-24T12:52:38.486Z,21.16
2022-10-24T12:57:46.022Z,20.69
2022-10-24T13:03:03.557Z,20.59
2022-10-24T13:08:15.339Z,20.55
2022-10-24T13:13:26.440Z,20.19
2022-10-24T13:18:37.009Z,19.93
2022-10-24T13:23:39.058Z,19.44
2022-10-24T13:28:41.179Z,18.83
2022-10-24T13:33:45.742Z,18.09
2022-10-24T13:38:47.585Z,17.37
2022-10-24T13:43:51.743Z,16.68
2022-10-24T13:48:54.677Z,15.80
2022-10-24T13:54:00.563Z,14.54
2022-10-24T13:59:02.445Z,13.41
2022-10-24T14:04:04.413Z,12.44
2022-10-24T14:09:10.365Z,11.64
2022-10-24T14:14:27.696Z,10.95
2022-10-24T14:19:32.539Z,10.42
2022-10-24T14:24:43.024Z,9.95
2022-10-24T14:29:55.802Z,9.55
2022-10-24T14:34:58.888Z,9.28
2022-10-24T14:40:01.085Z,9.01
2022-10-24T14:45:03.142Z,8.80
2022-10-24T14:50:25.258Z,8.60
2022-10-24T14:55:27.218Z,8.42
2022-10-24T15:00:35.584Z,8.31
2022-10-24T15:05:39.246Z,8.23
2022-10-24T15:10:43.964Z,8.13
2022-10-24T15:15:45.826Z,8.00
2022-10-24T15:20:48.508Z,7.87
2022-10-24T15:26:02.653Z,7.80
2022-10-24T15:31:09.147Z,7.72
2022-10-24T15:36:31.802Z,7.60
2022-10-24T15:41:33.945Z,7.52
2022-10-24T15:46:35.897Z,7.42
2022-10-24T15:51:39.261Z,7.32
2022-10-24T15:56:41.454Z,7.24
2022-10-24T16:01:54.104Z,7.14
2022-10-24T16:06:56.179Z,7.04
2022-10-24T16:11:59.196Z,6.98
2022-10-24T16:17:01.148Z,6.87
2022-10-24T16:22:03.326Z,6.84
2022-10-24T16:27:05.306Z,6.79
2022-10-24T16:32:07.242Z,6.73
2022-10-24T16:37:09.282Z,6.70
2022-10-24T16:42:11.530Z,6.62
2022-10-24T16:47:13.542Z,6.56
2022-10-24T16:52:15.532Z,6.52
2022-10-24T16:57:17.482Z,6.49
2022-10-24T17:02:20.182Z,6.43
2022-10-24T17:07:22.122Z,6.36
2022-10-24T17:12:24.311Z,6.29
2022-10-24T17:17:26.841Z,6.25
2022-10-24T17:22:28.974Z,6.19
2022-10-24T17:27:31.240Z,6.15
2022-10-24T17:32:34.948Z,6.11
2022-10-24T17:37:44.979Z,6.02
2022-10-24T17:42:49.929Z,5.95
2022-10-24T17:47:51.907Z,5.89
2022-10-24T17:52:54.078Z,5.83
2022-10-24T17:57:56.380Z,5.75
2022-10-24T18:02:58.650Z,5.71
2022-10-24T18:08:00.539Z,5.66
2022-10-24T18:13:02.527Z,5.59
2022-10-24T18:18:04.927Z,5.52
2022-10-24T18:23:06.853Z,5.44
2022-10-24T18:28:09.665Z,5.39
2022-10-24T18:33:11.575Z,5.34
2022-10-24T18:38:13.617Z,5.33
2022-10-24T18:43:16.958Z,5.29
2022-10-24T18:48:19.301Z,5.25
2022-10-24T18:53:25.951Z,5.22
2022-10-24T18:58:27.850Z,5.19
2022-10-24T19:03:36.895Z,5.16
2022-10-24T19:08:39.045Z,5.11
2022-10-24T19:13:41.698Z,5.06
2022-10-24T19:18:48.336Z,5.03
2022-10-24T19:23:50.717Z,5.03
2022-10-24T19:28:52.702Z,4.99
2022-10-24T19:33:54.863Z,4.99
2022-10-24T19:38:57.275Z,4.96
2022-10-24T19:43:59.862Z,4.92
2022-10-24T19:49:01.826Z,4.83
2022-10-24T19:54:03.834Z,4.75
2022-10-24T19:59:05.785Z,4.68
2022-10-24T20:04:07.709Z,4.58
2022-10-24T20:09:10.557Z,4.50
2022-10-24T20:14:12.491Z,4.47
2022-10-24T20:19:14.491Z,4.43
2022-10-24T20:24:16.562Z,4.38
2022-10-24T20:29:18.508Z,4.31
2022-10-24T20:34:20.428Z,4.28
2022-10-24T20:39:22.415Z,4.26
2022-10-24T20:44:24.414Z,4.24
2022-10-24T20:49:26.630Z,4.19
2022-10-24T20:54:28.557Z,4.18
2022-10-24T20:59:30.468Z,4.11
2022-10-24T21:04:32.422Z,4.02
2022-10-24T21:09:35.162Z,3.92
2022-10-24T21:14:37.040Z,3.84
2022-10-24T21:19:39.050Z,3.76
2022-10-24T21:24:41.091Z,3.68
2022-10-24T21:29:43.102Z,3.58
2022-10-24T21:34:45.058Z,3.49
2022-10-24T21:39:47.016Z,3.41
2022-10-24T21:44:49.043Z,3.35
2022-10-24T21:49:50.958Z,3.32
2022-10-24T21:54:52.906Z,3.31
2022-10-24T21:59:54.863Z,3.30
2022-10-24T22:04:56.929Z,3.28
2022-10-24T22:09:58.963Z,3.26
2022-10-24T22:15:00.974Z,3.23
2022-10-24T22:20:03.192Z,3.19
2022-10-24T22:25:05.583Z,3.17
2022-10-24T22:30:07.788Z,3.18
2022-10-24T22:35:10.150Z,3.05
2022-10-24T22:40:31.058Z,3.16
2022-10-24T22:45:33.242Z,3.14
2022-10-24T22:50:41.442Z,3.13
2022-10-24T22:55:49.519Z,3.11
2022-10-24T23:00:54.740Z,3.08
2022-10-24T23:05:59.883Z,3.05
2022-10-24T23:11:01.884Z,2.99
2022-10-24T23:16:30.782Z,2.96
2022-10-24T23:21:44.410Z,2.96
2022-10-24T23:26:49.144Z,2.99
2022-10-24T23:31:51.129Z,3.03
2022-10-24T23:36:54.527Z,3.05
2022-10-24T23:41:56.596Z,3.08
2022-10-24T23:47:05.855Z,3.10
2022-10-24T23:52:13.775Z,3.09
2022-10-24T23:57:17.448Z,3.11
